Time;durP1;ratioP1;P1;durP2;ratioP2;P2;SDS_P1;SDS_P2;PMS_P1;PMS_P2;Temp;Humidity;BMP_temperature;BMP_pressure;BME280_temperature;BME280_humidity;BME280_pressure;Samples;Min_cycle;Max_cycle;Signal;HPM_P1;HPM_P2
2021/07/03 00:02:02;;;;;;;7.65;5.68;;;;;;;18.97;40.60;101292.44;3601618;40;20421;-73
2021/07/03 00:04:32;;;;;;;6.90;5.45;;;;;;;18.94;40.74;101290.03;3601719;40;20090;-73
2021/07/03 00:07:01;;;;;;;8.07;6.18;;;;;;;18.92;41.37;101294.91;3601047;40;20140;-73
2021/07/03 00:09:29;;;;;;;10.27;6.22;;;;;;;18.89;40.71;101295.25;3601329;39;20037;-74
2021/07/03 00:12:02;;;;;;;7.90;5.30;;;;;;;18.85;41.29;101289.19;3592346;40;20060;-73
2021/07/03 00:14:33;;;;;;;8.10;6.00;;;;;;;18.85;41.18;101294.75;3601500;40;20054;-73
2021/07/03 00:17:01;;;;;;;7.50;5.60;;;;;;;18.81;41.13;101290.59;3592149;40;20075;-73
2021/07/03 00:19:30;;;;;;;7.95;5.70;;;;;;;18.80;41.31;101291.63;3600543;39;20076;-73
2021/07/03 00:21:58;;;;;;;8.68;5.30;;;;;;;18.79;40.95;101287.09;3601656;39;20158;-73
2021/07/03 00:24:26;;;;;;;7.38;5.78;;;;;;;18.78;40.83;101291.78;3601410;40;20121;-73
2021/07/03 00:26:57;;;;;;;7.97;6.13;;;;;;;18.78;41.39;101289.00;3602589;39;20063;-74
2021/07/03 00:29:25;;;;;;;8.07;5.63;;;;;;;18.76;41.50;101291.09;3601189;40;20041;-73
2021/07/03 00:31:55;;;;;;;7.60;5.88;;;;;;;18.78;41.01;101294.56;3601444;40;20063;-73
2021/07/03 00:34:23;;;;;;;8.20;5.80;;;;;;;18.76;41.40;101287.44;3591898;40;20059;-73
2021/07/03 00:36:52;;;;;;;7.38;5.80;;;;;;;18.75;41.25;101286.59;3601053;40;20414;-74
2021/07/03 00:39:20;;;;;;;7.50;5.68;;;;;;;18.74;41.23;101286.75;3601728;40;20064;-74
2021/07/03 00:41:50;;;;;;;7.53;5.85;;;;;;;18.73;41.48;101296.09;3601182;40;20054;-73
2021/07/03 00:44:26;;;;;;;7.55;5.60;;;;;;;18.76;41.42;101290.22;3600959;40;20060;-73
2021/07/03 00:46:56;;;;;;;6.70;5.05;;;;;;;18.73;41.50;101294.19;3592212;40;21332;-73
2021/07/03 00:49:24;;;;;;;8.07;5.70;;;;;;;18.70;40.94;101300.06;3591475;39;20388;-73
2021/07/03 00:51:53;;;;;;;7.65;5.57;;;;;;;18.70;40.96;101297.31;3591356;40;20060;-73
2021/07/03 00:54:22;;;;;;;7.88;5.90;;;;;;;18.67;41.35;101300.44;3591804;40;20055;-73
2021/07/03 00:57:01;;;;;;;7.40;5.38;;;;;;;18.67;41.06;101300.44;3591735;40;20080;-73
2021/07/03 00:59:34;;;;;;;8.00;5.63;;;;;;;18.69;41.11;101300.28;3591752;40;20042;-73
2021/07/03 01:02:09;;;;;;;7.72;5.85;;;;;;;18.66;41.04;101287.63;3570352;40;20127;-73
2021/07/03 01:04:39;;;;;;;9.23;6.47;;;;;;;18.61;41.67;101289.19;3560468;40;20687;-73
2021/07/03 01:07:09;;;;;;;8.70;5.97;;;;;;;18.59;41.72;101288.50;3560181;40;20408;-73
2021/07/03 01:09:38;;;;;;;8.90;5.88;;;;;;;18.54;41.44;101277.94;3560348;40;20061;-73
2021/07/03 01:12:10;;;;;;;7.80;5.78;;;;;;;18.51;41.24;101285.75;3559198;40;20075;-73
2021/07/03 01:14:42;;;;;;;9.07;6.03;;;;;;;18.50;41.65;101278.47;3579096;40;20097;-73
2021/07/03 01:17:13;;;;;;;8.95;6.15;;;;;;;18.45;41.40;101279.84;3569923;40;20080;-73
2021/07/03 01:19:42;;;;;;;8.32;6.07;;;;;;;18.42;41.67;101279.34;3578195;40;20110;-73
2021/07/03 01:22:15;;;;;;;7.32;5.75;;;;;;;18.41;41.84;101286.78;3581415;40;20048;-73
2021/07/03 01:24:46;;;;;;;8.48;6.10;;;;;;;18.36;41.55;101278.09;3590802;40;20059;-72
2021/07/03 01:27:15;;;;;;;8.02;5.55;;;;;;;18.35;41.84;101283.84;3591586;40;20044;-74
2021/07/03 01:29:45;;;;;;;9.30;5.80;;;;;;;18.32;41.85;101282.28;3600626;40;20372;-73
2021/07/03 01:32:14;;;;;;;7.75;5.25;;;;;;;18.32;41.35;101285.06;3591999;40;20066;-73
2021/07/03 01:34:44;;;;;;;7.20;5.78;;;;;;;18.32;41.84;101281.41;3600795;40;20052;-73
2021/07/03 01:37:22;;;;;;;7.47;5.47;;;;;;;18.33;41.81;101285.91;3591470;40;20092;-73
2021/07/03 01:39:56;;;;;;;7.78;6.05;;;;;;;18.31;41.58;101279.69;3570107;40;20056;-73
2021/07/03 01:42:24;;;;;;;7.93;5.82;;;;;;;18.30;41.40;101284.34;3589932;40;20421;-73
2021/07/03 01:44:54;;;;;;;7.50;5.68;;;;;;;18.30;41.73;101289.88;3591285;40;20048;-73
2021/07/03 01:47:24;;;;;;;9.45;5.60;;;;;;;18.30;41.74;101287.13;3591149;40;20148;-73
2021/07/03 01:49:53;;;;;;;7.90;5.53;;;;;;;18.29;41.91;101288.16;3600321;39;20044;-73
2021/07/03 01:52:23;;;;;;;6.78;5.18;;;;;;;18.31;41.84;101287.97;3632315;22;20043;-74
2021/07/03 01:54:57;;;;;;;7.55;6.05;;;;;;;18.28;41.68;101294.72;3587561;40;20117;-73
2021/07/03 01:57:27;;;;;;;8.35;5.85;;;;;;;18.28;41.93;101296.63;3579065;40;20311;-73
2021/07/03 02:00:19;;;;;;;8.93;5.60;;;;;;;18.26;41.60;101285.75;3567734;40;20029;-73
2021/07/03 02:02:56;;;;;;;7.85;5.95;;;;;;;18.22;41.65;101286.25;3579228;40;20052;-73
2021/07/03 02:05:35;;;;;;;8.38;5.78;;;;;;;18.19;42.20;101294.91;3579043;40;20089;-73
2021/07/03 02:08:05;;;;;;;7.75;5.97;;;;;;;18.18;41.90;101285.75;3579148;40;20052;-73
2021/07/03 02:10:33;;;;;;;9.55;6.20;;;;;;;18.15;41.80;101287.97;3587461;40;20050;-73
2021/07/03 02:13:05;;;;;;;7.47;5.78;;;;;;;18.11;41.83;101286.59;3564592;40;20419;-75
2021/07/03 02:15:37;;;;;;;7.78;5.68;;;;;;;18.06;41.72;101289.88;3599396;39;20047;-73
2021/07/03 02:18:17;;;;;;;7.90;5.80;;;;;;;18.04;42.23;101295.56;3609754;39;20394;-73
2021/07/03 02:20:47;;;;;;;7.85;5.25;;;;;;;18.04;42.32;101298.34;3607529;39;20035;-73
2021/07/03 02:23:21;;;;;;;7.30;5.22;;;;;;;18.05;41.71;101293.66;3594328;39;20059;-72
2021/07/03 02:25:54;;;;;;;7.90;6.00;;;;;;;18.03;42.27;101298.50;3610688;39;20058;-73
2021/07/03 02:28:27;;;;;;;8.85;6.13;;;;;;;18.02;41.81;101299.53;3610266;39;20047;-74
2021/07/03 02:31:02;;;;;;;7.60;5.68;;;;;;;18.00;42.29;101296.06;3610195;39;20064;-74
2021/07/03 02:33:36;;;;;;;8.77;6.18;;;;;;;17.98;41.96;101303.66;3619777;39;20055;-73
2021/07/03 02:36:07;;;;;;;8.52;6.22;;;;;;;17.97;41.78;101297.25;3617625;39;20047;-73
2021/07/03 02:38:40;;;;;;;7.85;5.85;;;;;;;17.96;42.37;101303.81;3618406;39;20063;-74
2021/07/03 02:41:10;;;;;;;8.73;5.90;;;;;;;17.93;42.17;101306.09;3619231;39;20039;-73
2021/07/03 02:43:38;;;;;;;7.90;5.78;;;;;;;17.91;42.06;101302.63;3609490;39;20062;-75
2021/07/03 02:46:11;;;;;;;;;;;;;;;17.62;42.57;101303.91;3602491;39;20107;-73
2021/07/03 02:48:41;;;;;;;6.80;4.68;;;;;;;17.84;42.37;101304.34;3610263;39;19941;-72
2021/07/03 02:51:09;;;;;;;6.53;5.25;;;;;;;17.86;41.71;101302.28;3610708;39;20055;-72
2021/07/03 02:53:39;;;;;;;7.70;5.28;;;;;;;17.87;42.49;101301.19;3609195;39;20047;-72
2021/07/03 02:56:07;;;;;;;6.90;5.47;;;;;;;17.83;42.00;101297.94;3610245;39;20046;-73
2021/07/03 02:58:37;;;;;;;8.25;5.60;;;;;;;17.81;42.38;101300.00;3610052;39;20051;-73
2021/07/03 03:01:08;;;;;;;7.82;5.57;;;;;;;17.79;42.30;101295.66;3602729;39;20387;-75
2021/07/03 03:03:37;;;;;;;8.18;5.55;;;;;;;17.77;42.09;101287.53;3609782;39;20070;-73
2021/07/03 03:06:05;;;;;;;8.02;5.85;;;;;;;17.75;42.40;101289.59;3610192;39;20035;-73
2021/07/03 03:08:34;;;;;;;8.40;5.70;;;;;;;17.74;41.96;101287.00;3609805;39;20031;-73
2021/07/03 03:11:04;;;;;;;8.43;5.75;;;;;;;17.75;42.44;101292.38;3609889;39;20031;-73
2021/07/03 03:13:33;;;;;;;7.40;5.53;;;;;;;17.70;42.39;101280.97;3601802;39;20044;-75
2021/07/03 03:16:03;;;;;;;7.65;5.32;;;;;;;17.67;42.02;101287.69;3610183;39;20038;-73
2021/07/03 03:18:33;;;;;;;7.18;5.43;;;;;;;17.66;41.99;101279.56;3589103;40;20043;-73
2021/07/03 03:21:02;;;;;;;8.73;5.72;;;;;;;17.64;42.49;101279.72;3552019;40;20142;-73
2021/07/03 03:23:31;;;;;;;10.90;6.05;;;;;;;17.63;42.77;101274.34;3578423;40;20098;-72
2021/07/03 03:26:00;;;;;;;9.55;6.40;;;;;;;17.59;42.31;101272.97;3570087;40;20037;-73
2021/07/03 03:28:34;;;;;;;7.85;5.82;;;;;;;17.56;42.63;101268.63;3576315;40;20351;-73
2021/07/03 03:31:06;;;;;;;8.32;5.68;;;;;;;17.54;42.38;101264.28;3602203;39;20123;-73
2021/07/03 03:33:40;;;;;;;8.23;5.97;;;;;;;17.52;42.46;101271.91;3611717;39;20031;-74
2021/07/03 03:36:16;;;;;;;8.82;6.18;;;;;;;17.49;42.31;101256.50;3620212;39;20080;-73
2021/07/03 03:38:47;;;;;;;8.70;5.82;;;;;;;17.48;42.51;101252.00;3611257;39;20093;-73
2021/07/03 03:41:16;;;;;;;10.60;5.82;;;;;;;17.47;42.83;101249.41;3609481;39;20145;-72
2021/07/03 03:43:46;;;;;;;8.43;5.22;;;;;;;17.46;43.06;101244.91;3601138;39;20148;-73
2021/07/03 03:46:29;;;;;;;7.28;5.25;;;;;;;17.42;42.36;101252.69;3619038;39;20396;-73
2021/07/03 03:48:58;;;;;;;8.40;5.25;;;;;;;17.41;43.11;101252.84;3562963;40;20384;-73
2021/07/03 03:51:28;;;;;;;8.85;5.50;;;;;;;17.41;42.48;101250.06;3569202;40;20037;-73
2021/07/03 03:53:56;;;;;;;7.28;5.00;;;;;;;17.42;42.51;101243.53;3564521;40;20072;-73
2021/07/03 03:56:24;;;;;;;7.65;5.68;;;;;;;17.42;42.63;101244.38;3560067;40;20049;-74
2021/07/03 03:58:55;;;;;;;7.35;5.35;;;;;;;17.44;42.95;101249.75;3554441;40;20081;-73
2021/07/03 04:01:27;;;;;;;7.45;4.97;;;;;;;17.43;42.92;101246.13;3556537;40;20073;-73
2021/07/03 04:03:56;;;;;;;7.45;4.97;;;;;;;17.45;42.57;101243.19;3563576;40;20161;-73
2021/07/03 04:06:24;;;;;;;7.05;5.15;;;;;;;17.45;43.19;101249.59;3538377;40;20035;-73
2021/07/03 04:08:52;;;;;;;7.95;5.45;;;;;;;17.47;42.81;101243.88;3530471;40;20058;-73
2021/07/03 04:11:20;;;;;;;8.35;5.32;;;;;;;17.47;42.85;101247.50;3528422;40;20110;-73
2021/07/03 04:13:48;;;;;;;6.93;5.28;;;;;;;17.49;42.62;101247.34;3529675;40;20181;-73
2021/07/03 04:16:18;;;;;;;8.60;5.15;;;;;;;17.52;42.89;101249.78;3557074;40;20052;-73
2021/07/03 04:18:46;;;;;;;8.18;5.68;;;;;;;17.50;42.91;101246.31;3568066;40;20154;-72
2021/07/03 04:21:14;;;;;;;8.10;5.90;;;;;;;17.50;42.88;101240.78;3570685;40;20034;-73
2021/07/03 04:23:42;;;;;;;8.60;5.47;;;;;;;17.50;43.28;101240.78;3551561;40;20085;-73
2021/07/03 04:26:10;;;;;;;7.85;5.53;;;;;;;17.50;42.99;101238.88;3593030;39;20112;-73
2021/07/03 04:28:38;;;;;;;7.90;5.40;;;;;;;17.50;42.84;101236.13;3610777;39;20494;-72
2021/07/03 04:31:06;;;;;;;8.02;5.50;;;;;;;17.50;42.75;101238.88;3620687;39;20066;-72
2021/07/03 04:33:36;;;;;;;8.50;4.97;;;;;;;17.53;42.77;101238.56;3620525;39;20039;-73
2021/07/03 04:36:04;;;;;;;8.27;5.28;;;;;;;17.53;42.92;101237.69;3620218;39;20430;-76
2021/07/03 04:38:32;;;;;;;8.23;5.68;;;;;;;17.54;43.10;101236.63;3620168;39;20438;-73
2021/07/03 04:41:03;;;;;;;7.85;5.00;;;;;;;17.54;42.97;101234.72;3601668;39;20039;-72
2021/07/03 04:43:33;;;;;;;9.27;5.93;;;;;;;17.56;43.06;101234.56;3614380;39;20037;-74
2021/07/03 04:46:01;;;;;;;8.02;5.55;;;;;;;17.57;43.30;101236.28;3620034;39;20043;-73
2021/07/03 04:48:33;;;;;;;7.20;5.00;;;;;;;17.55;43.22;101235.59;3608815;39;20413;-73
2021/07/03 04:51:04;;;;;;;7.68;5.30;;;;;;;17.58;43.55;101233.38;3611095;39;20051;-73
2021/07/03 04:53:33;;;;;;;7.78;5.47;;;;;;;17.57;43.07;101231.63;3620311;39;20047;-73
2021/07/03 04:56:01;;;;;;;7.30;5.07;;;;;;;17.58;43.39;101238.91;3610186;39;20597;-73
2021/07/03 04:58:29;;;;;;;7.53;5.47;;;;;;;17.59;43.50;101234.22;3611481;39;20031;-73
2021/07/03 05:00:57;;;;;;;7.97;5.10;;;;;;;17.60;43.14;101233.19;3595339;39;20040;-73
2021/07/03 05:03:26;;;;;;;7.75;4.95;;;;;;;17.61;43.67;101230.28;3610342;39;20270;-73
2021/07/03 05:05:54;;;;;;;7.20;5.32;;;;;;;17.62;43.29;101234.75;3607309;39;20393;-72
2021/07/03 05:08:23;;;;;;;7.15;5.10;;;;;;;17.65;43.63;101233.53;3610576;39;20070;-73
2021/07/03 05:10:51;;;;;;;7.57;5.03;;;;;;;17.65;43.91;101230.78;3610802;39;20063;-72
2021/07/03 05:13:19;;;;;;;7.60;5.03;;;;;;;17.68;43.89;101241.53;3620202;39;20055;-74
2021/07/03 05:15:48;;;;;;;7.38;4.93;;;;;;;17.71;43.95;101232.84;3620203;39;20054;-73
2021/07/03 05:18:16;;;;;;;7.07;4.90;;;;;;;17.75;44.05;101238.94;3620091;39;20032;-73
2021/07/03 05:20:45;;;;;;;7.00;5.32;;;;;;;17.80;44.07;101242.91;3610417;39;20112;-73
2021/07/03 05:23:13;;;;;;;6.82;4.80;;;;;;;17.86;44.58;101230.31;3620037;39;20046;-73
2021/07/03 05:25:44;;;;;;;7.38;4.85;;;;;;;17.95;44.25;101240.31;3604832;39;20474;-73
2021/07/03 05:28:12;;;;;;;6.88;4.72;;;;;;;17.98;44.37;101251.94;3601144;39;20039;-73
2021/07/03 05:30:42;;;;;;;6.57;4.40;;;;;;;18.08;44.04;101245.41;3613901;39;20035;-73
2021/07/03 05:33:10;;;;;;;5.97;4.38;;;;;;;18.15;44.08;101243.69;3618656;39;20038;-75
2021/07/03 05:35:38;;;;;;;6.90;4.60;;;;;;;18.23;44.46;101250.09;3605297;39;20055;-74
2021/07/03 05:38:06;;;;;;;6.38;4.45;;;;;;;18.31;44.45;101244.53;3617416;39;20044;-73
2021/07/03 05:40:34;;;;;;;7.88;5.05;;;;;;;18.41;44.58;101241.59;3610050;39;20397;-73
2021/07/03 05:43:04;;;;;;;6.53;4.45;;;;;;;18.51;44.38;101239.50;3603410;39;20072;-74
2021/07/03 05:45:33;;;;;;;5.78;4.35;;;;;;;18.58;44.31;101243.31;3615504;39;20398;-73
2021/07/03 05:48:01;;;;;;;6.75;4.85;;;;;;;18.67;43.96;101236.72;3615854;39;20047;-73
2021/07/03 05:50:30;;;;;;;6.60;4.75;;;;;;;18.76;43.92;101240.34;3597872;39;20406;-73
2021/07/03 05:52:58;;;;;;;6.53;4.60;;;;;;;18.85;43.50;101239.31;3612469;39;20390;-72
2021/07/03 05:55:26;;;;;;;7.07;4.13;;;;;;;18.92;43.65;101233.91;3619471;39;20393;-73
2021/07/03 05:57:54;;;;;;;5.80;4.15;;;;;;;19.01;43.99;101233.72;3609950;39;20405;-73
2021/07/03 06:00:24;;;;;;;6.22;4.45;;;;;;;19.12;43.33;101227.75;3610193;39;20043;-73
2021/07/03 06:02:52;;;;;;;6.22;4.43;;;;;;;19.18;43.78;101235.34;3619035;39;20068;-73
2021/07/03 06:05:24;;;;;;;5.95;4.60;;;;;;;19.25;43.64;101226.34;3599957;39;20024;-73
2021/07/03 06:07:52;;;;;;;5.65;4.32;;;;;;;19.36;43.70;101237.00;3595592;39;20039;-72
2021/07/03 06:10:20;;;;;;;6.13;3.75;;;;;;;19.44;43.56;101235.06;3598658;39;20128;-70
2021/07/03 06:12:49;;;;;;;6.28;4.38;;;;;;;19.54;43.47;101234.88;3616362;39;20043;-72
2021/07/03 06:15:17;;;;;;;6.35;4.55;;;;;;;19.64;43.39;101235.50;3611695;39;20070;-71
2021/07/03 06:17:47;;;;;;;6.43;4.22;;;;;;;19.76;42.89;101234.03;3618707;39;20055;-71
2021/07/03 06:20:15;;;;;;;6.05;4.13;;;;;;;19.85;43.21;101238.47;3608780;39;20112;-75
2021/07/03 06:22:44;;;;;;;6.78;4.20;;;;;;;19.94;42.58;101229.03;3607774;39;20136;-71
2021/07/03 06:25:13;;;;;;;6.10;4.10;;;;;;;20.07;42.77;101231.22;3617952;39;20055;-71
2021/07/03 06:27:42;;;;;;;6.22;4.30;;;;;;;20.17;42.55;101228.19;3618206;39;20051;-73
2021/07/03 06:30:12;;;;;;;6.15;4.10;;;;;;;20.26;42.39;101224.31;3618295;39;20047;-71
2021/07/03 06:32:40;;;;;;;5.93;4.28;;;;;;;20.32;42.22;101220.81;3619239;39;20031;-69
2021/07/03 06:35:11;;;;;;;5.97;4.68;;;;;;;20.43;41.74;101225.00;3609601;39;20112;-68
2021/07/03 06:37:39;;;;;;;6.72;4.38;;;;;;;20.49;42.26;101229.84;3609710;39;20120;-68
2021/07/03 06:40:08;;;;;;;6.07;4.20;;;;;;;20.57;41.77;101226.97;3618358;39;20027;-68
2021/07/03 06:42:36;;;;;;;6.47;4.55;;;;;;;20.65;41.77;101222.22;3618544;39;20031;-69
2021/07/03 06:45:07;;;;;;;6.32;4.38;;;;;;;20.76;41.68;101231.09;3607495;39;20023;-68
2021/07/03 06:47:35;;;;;;;6.60;4.57;;;;;;;20.84;41.58;101229.09;3613748;39;20028;-69
2021/07/03 06:50:05;;;;;;;5.88;4.60;;;;;;;20.94;41.47;101228.84;3618718;39;20043;-71
2021/07/03 06:52:35;;;;;;;6.03;4.47;;;;;;;21.06;41.29;101230.13;3611418;39;20034;-70
2021/07/03 06:55:05;;;;;;;6.82;4.40;;;;;;;21.15;41.58;101223.41;3620116;39;20064;-70
2021/07/03 06:57:33;;;;;;;5.50;4.18;;;;;;;21.24;40.88;101222.25;3620093;39;20086;-70
2021/07/03 07:00:01;;;;;;;5.30;4.03;;;;;;;21.35;40.84;101216.16;3620119;39;20039;-70
2021/07/03 07:02:30;;;;;;;5.82;4.22;;;;;;;21.45;40.96;101216.72;3588171;40;20423;-69
2021/07/03 07:04:58;;;;;;;6.90;4.63;;;;;;;21.56;40.65;101222.88;3609122;39;20031;-70
2021/07/03 07:07:26;;;;;;;7.55;4.78;;;;;;;21.65;40.86;101218.94;3620364;39;20035;-70
2021/07/03 07:09:57;;;;;;;6.15;4.45;;;;;;;21.78;40.65;101217.16;3610613;39;20038;-69
2021/07/03 07:12:25;;;;;;;6.68;4.25;;;;;;;21.87;40.32;101217.00;3620568;39;20039;-70
2021/07/03 07:14:53;;;;;;;6.70;4.30;;;;;;;21.97;40.25;101224.00;3620330;39;20409;-69
2021/07/03 07:17:22;;;;;;;6.47;4.47;;;;;;;22.08;39.96;101215.09;3620468;39;20290;-70
2021/07/03 07:19:51;;;;;;;6.03;4.10;;;;;;;22.18;39.97;101215.63;3620040;39;20039;-70
2021/07/03 07:22:19;;;;;;;5.07;3.97;;;;;;;22.30;39.95;101207.63;3620051;39;20313;-71
2021/07/03 07:24:47;;;;;;;5.68;4.22;;;;;;;22.42;39.53;101213.50;3610869;39;20063;-70
2021/07/03 07:27:18;;;;;;;5.13;3.78;;;;;;;22.57;39.58;101217.91;3609852;39;20051;-71
2021/07/03 07:29:46;;;;;;;6.40;4.22;;;;;;;22.67;39.87;101211.09;3616620;39;20035;-70
2021/07/03 07:32:15;;;;;;;6.82;4.15;;;;;;;22.78;39.58;101204.97;3602349;39;20032;-70
2021/07/03 07:34:44;;;;;;;5.82;4.38;;;;;;;22.89;39.06;101196.06;3609866;39;20051;-70
2021/07/03 07:37:12;;;;;;;6.07;4.50;;;;;;;22.98;38.91;101192.03;3609640;39;20043;-70
2021/07/03 07:39:40;;;;;;;5.13;4.03;;;;;;;23.07;38.61;101198.31;3609502;39;20028;-70
2021/07/03 07:42:08;;;;;;;5.70;4.25;;;;;;;23.15;38.44;101198.13;3612152;39;20023;-70
2021/07/03 07:44:38;;;;;;;6.05;4.13;;;;;;;23.24;38.18;101194.09;3602393;39;20471;-70
2021/07/03 07:47:07;;;;;;;5.97;4.20;;;;;;;23.31;38.37;101189.41;3610640;39;20108;-70
2021/07/03 07:49:35;;;;;;;6.55;4.10;;;;;;;23.38;37.92;101193.09;3610565;39;20072;-70
2021/07/03 07:52:07;;;;;;;5.65;4.00;;;;;;;23.49;36.90;101189.72;3672180;22;20027;-83
2021/07/03 07:54:35;;;;;;;5.20;4.05;;;;;;;23.50;37.74;101194.25;3642743;39;20026;-83
2021/07/03 07:57:04;;;;;;;5.55;4.18;;;;;;;23.60;37.33;101185.47;3622911;39;20027;-84
2021/07/03 07:59:32;;;;;;;4.97;4.03;;;;;;;23.66;37.03;101181.81;3623015;39;20036;-82
2021/07/03 08:02:02;;;;;;;5.63;3.75;;;;;;;23.74;37.28;101178.84;3602433;39;20453;-80
2021/07/03 08:04:31;;;;;;;4.85;3.88;;;;;;;23.80;37.17;101179.91;3602759;39;20044;-81
2021/07/03 08:06:59;;;;;;;5.80;3.90;;;;;;;23.89;37.23;101173.06;3584157;40;20078;-82
2021/07/03 08:09:28;;;;;;;5.72;4.00;;;;;;;23.97;36.72;101176.50;3591042;40;20029;-82
2021/07/03 08:11:56;;;;;;;5.50;3.70;;;;;;;24.08;37.11;101171.41;3582306;40;20032;-82
2021/07/03 08:14:28;;;;;;;5.30;3.88;;;;;;;24.15;36.71;101172.25;3582636;40;20031;-81
2021/07/03 08:16:58;;;;;;;6.07;3.60;;;;;;;24.26;36.74;101169.69;3552695;40;20035;-84
2021/07/03 08:19:27;;;;;;;4.97;3.63;;;;;;;24.38;36.73;101179.13;3621301;22;20036;-70
2021/07/03 08:21:57;;;;;;;5.78;3.97;;;;;;;24.45;36.00;101171.59;3611441;39;20055;-71
2021/07/03 08:24:26;;;;;;;5.72;3.90;;;;;;;24.54;35.51;101163.84;3621161;39;20075;-71
2021/07/03 08:26:54;;;;;;;6.25;4.13;;;;;;;24.64;35.31;101166.19;3620573;39;20061;-71
2021/07/03 08:29:23;;;;;;;5.97;3.47;;;;;;;24.73;35.49;101170.50;3598014;40;20054;-73
2021/07/03 08:31:51;;;;;;;4.68;3.63;;;;;;;24.80;35.48;101160.16;3607995;39;20047;-71
2021/07/03 08:34:19;;;;;;;5.05;3.80;;;;;;;24.89;34.91;101164.44;3620763;39;20047;-73
2021/07/03 08:36:49;;;;;;;5.43;3.80;;;;;;;24.97;34.88;101158.59;3620436;39;20054;-72
2021/07/03 08:39:18;;;;;;;5.32;3.70;;;;;;;25.02;34.42;101156.03;3614104;39;20471;-72
2021/07/03 08:41:47;;;;;;;4.85;3.72;;;;;;;25.08;34.39;101157.06;3617623;39;20442;-72
2021/07/03 08:44:17;;;;;;;5.15;3.70;;;;;;;25.15;34.77;101158.75;3611049;39;20047;-72
2021/07/03 08:46:46;;;;;;;4.78;3.40;;;;;;;25.23;34.64;101156.78;3620224;39;20466;-72
2021/07/03 08:49:16;;;;;;;5.00;3.97;;;;;;;25.30;34.51;101155.72;3620368;39;20059;-73
2021/07/03 08:51:50;;;;;;;6.20;4.10;;;;;;;25.38;33.21;101151.78;3610102;39;20292;-72
2021/07/03 08:54:18;;;;;;;4.57;3.60;;;;;;;25.41;33.77;101151.34;3613823;39;20444;-72
2021/07/03 08:56:47;;;;;;;5.30;3.72;;;;;;;25.45;33.89;101141.41;3617747;39;20070;-72
2021/07/03 08:59:16;;;;;;;5.78;3.70;;;;;;;25.51;33.70;101144.19;3603952;39;20321;-72
2021/07/03 09:01:50;;;;;;;5.72;4.10;;;;;;;25.60;33.55;101139.19;3588274;40;20056;-71
2021/07/03 09:04:18;;;;;;;4.68;3.65;;;;;;;25.63;33.40;101141.53;3612823;39;20054;-72
2021/07/03 09:06:46;;;;;;;4.75;3.42;;;;;;;25.70;33.44;101133.06;3618337;39;20058;-72
2021/07/03 09:09:25;;;;;;;4.43;3.35;;;;;;;25.80;33.08;101139.91;3612027;39;20043;-71
2021/07/03 09:11:54;;;;;;;5.18;3.70;;;;;;;25.85;33.11;101131.72;3610885;39;20159;-71
2021/07/03 09:14:28;;;;;;;5.82;4.25;;;;;;;25.96;32.39;101135.72;3619644;39;20058;-72
2021/07/03 09:16:58;;;;;;;5.32;3.58;;;;;;;26.02;33.18;101132.00;3620187;39;20155;-71
2021/07/03 09:19:27;;;;;;;4.93;3.53;;;;;;;26.10;33.07;101128.06;3610998;39;20039;-71
2021/07/03 09:21:57;;;;;;;6.70;3.95;;;;;;;26.17;33.07;101123.28;3619398;39;20135;-72
2021/07/03 09:24:32;;;;;;;5.75;3.97;;;;;;;26.27;31.99;101123.59;3610517;39;20047;-71
2021/07/03 09:27:01;;;;;;;5.80;3.85;;;;;;;26.33;32.55;101128.28;3620209;39;20343;-71
2021/07/03 09:29:30;;;;;;;4.85;3.83;;;;;;;26.36;32.15;101125.00;3610699;39;20043;-72
2021/07/03 09:32:07;;;;;;;4.63;3.50;;;;;;;26.48;31.64;101126.00;3619193;39;20055;-74
2021/07/03 09:34:39;;;;;;;5.80;3.67;;;;;;;26.49;32.48;101130.53;3610897;39;20591;-71
2021/07/03 09:37:12;;;;;;;4.82;3.45;;;;;;;26.57;32.14;101130.25;3618036;39;20360;-72
2021/07/03 09:39:41;;;;;;;5.50;3.70;;;;;;;26.65;32.15;101132.75;3613718;39;20043;-71
2021/07/03 09:42:16;;;;;;;4.55;3.47;;;;;;;26.75;30.60;101137.81;3620613;39;20580;-71
2021/07/03 09:44:44;;;;;;;4.88;3.65;;;;;;;26.78;31.11;101134.53;3614580;39;20061;-72
2021/07/03 09:47:17;;;;;;;4.32;3.20;;;;;;;26.89;30.57;101138.53;3619907;39;20433;-71
2021/07/03 09:49:46;;;;;;;4.53;3.38;;;;;;;26.91;31.11;101131.63;3608694;39;20040;-71
2021/07/03 09:52:21;;;;;;;4.45;3.50;;;;;;;26.97;31.33;101127.00;3618158;39;20081;-72
2021/07/03 09:54:51;;;;;;;4.65;3.53;;;;;;;27.03;30.92;101132.53;3620575;39;20051;-71
2021/07/03 09:57:21;;;;;;;4.85;3.75;;;;;;;27.06;30.75;101128.41;3619668;39;20095;-71
2021/07/03 09:59:50;;;;;;;4.45;3.05;;;;;;;27.12;30.98;101135.03;3613414;39;20054;-71
2021/07/03 10:02:20;;;;;;;4.43;3.10;;;;;;;27.15;31.03;101132.63;3594568;39;20051;-70
2021/07/03 10:04:48;;;;;;;5.40;3.30;;;;;;;27.21;31.13;101131.66;3596194;39;20039;-72
2021/07/03 10:07:22;;;;;;;5.43;3.50;;;;;;;27.31;30.59;101131.09;3610791;39;20047;-72
2021/07/03 10:09:56;;;;;;;5.70;3.90;;;;;;;27.37;30.37;101138.59;3613827;39;20051;-72
2021/07/03 10:12:27;;;;;;;5.43;3.63;;;;;;;27.42;30.61;101130.31;3604547;39;20305;-71
2021/07/03 10:14:55;;;;;;;5.78;3.90;;;;;;;27.46;30.41;101127.91;3611241;39;20487;-71
2021/07/03 10:17:25;;;;;;;5.72;3.90;;;;;;;27.53;29.75;101123.03;3613911;39;20051;-70
2021/07/03 10:19:54;;;;;;;5.70;4.00;;;;;;;27.57;30.32;101116.72;3608826;39;20314;-72
2021/07/03 10:22:24;;;;;;;6.82;4.28;;;;;;;27.59;29.93;101119.28;3613029;39;20051;-72
2021/07/03 10:24:56;;;;;;;5.75;3.72;;;;;;;27.64;29.63;101120.28;3620272;39;20443;-72
2021/07/03 10:27:26;;;;;;;4.93;3.50;;;;;;;27.65;29.81;101110.75;3619626;39;20055;-72
2021/07/03 10:29:56;;;;;;;4.80;3.60;;;;;;;27.72;30.11;101110.66;3619964;39;20135;-71
2021/07/03 10:32:27;;;;;;;5.47;3.67;;;;;;;27.79;29.92;101103.81;3620138;39;20046;-71
2021/07/03 10:34:55;;;;;;;4.43;3.58;;;;;;;27.83;29.51;101112.66;3610460;39;20047;-72
2021/07/03 10:37:32;;;;;;;4.85;3.53;;;;;;;27.93;29.40;101109.22;3615676;39;20108;-72
2021/07/03 10:40:02;;;;;;;4.78;3.60;;;;;;;27.96;29.52;101112.41;3595146;39;20047;-71
2021/07/03 10:42:32;;;;;;;5.13;3.78;;;;;;;28.02;29.83;101105.00;3619636;39;20558;-71
2021/07/03 10:45:09;;;;;;;4.88;3.50;;;;;;;28.11;29.42;101092.28;3620570;39;20134;-71
2021/07/03 10:47:37;;;;;;;6.63;3.63;;;;;;;28.10;29.28;101085.81;3614923;39;20112;-72
2021/07/03 10:50:22;;;;;;;5.05;3.63;;;;;;;28.15;28.77;101080.34;3620039;39;20047;-71
2021/07/03 10:52:51;;;;;;;5.03;3.30;;;;;;;28.12;28.66;101078.00;3618023;39;20083;-72
2021/07/03 10:55:32;;;;;;;5.55;3.45;;;;;;;28.15;28.61;101076.66;3610585;39;20055;-71
2021/07/03 10:58:12;;;;;;;4.72;3.45;;;;;;;28.09;28.52;101070.03;3616042;39;20051;-71
2021/07/03 11:00:40;;;;;;;5.43;3.70;;;;;;;28.10;28.57;101063.31;3619477;39;20046;-71
2021/07/03 11:03:13;;;;;;;4.65;3.22;;;;;;;28.14;28.62;101056.13;3619391;39;20043;-71
2021/07/03 11:05:41;;;;;;;4.18;3.17;;;;;;;28.13;28.92;101057.22;3619820;39;20063;-72
2021/07/03 11:08:25;;;;;;;5.80;3.53;;;;;;;28.15;27.96;101052.19;3613734;39;20055;-72
2021/07/03 11:10:55;;;;;;;5.47;3.10;;;;;;;28.22;28.22;101065.28;3619253;39;20047;-71
2021/07/03 11:13:24;;;;;;;4.20;3.20;;;;;;;28.25;28.33;101062.81;3610515;39;20339;-71
2021/07/03 11:15:53;;;;;;;4.18;3.00;;;;;;;28.27;28.25;101055.00;3619021;39;20049;-71
2021/07/03 11:18:22;;;;;;;4.25;2.95;;;;;;;28.31;28.46;101063.81;3619207;39;20045;-71
2021/07/03 11:20:50;;;;;;;4.35;3.33;;;;;;;28.34;28.24;101044.47;3615631;39;20391;-71
2021/07/03 11:23:20;;;;;;;4.20;2.90;;;;;;;28.44;28.27;101052.28;3615857;39;20055;-71
2021/07/03 11:25:49;;;;;;;4.82;3.30;;;;;;;28.47;28.15;101044.22;3619514;39;20059;-71
2021/07/03 11:28:20;;;;;;;4.25;3.03;;;;;;;28.55;27.81;101048.66;3616597;39;20058;-72
2021/07/03 11:30:57;;;;;;;4.57;2.97;;;;;;;28.61;26.93;101055.25;3619488;39;20373;-72
2021/07/03 11:33:28;;;;;;;4.82;3.00;;;;;;;28.66;28.14;101049.72;3617232;39;20055;-72
2021/07/03 11:35:56;;;;;;;3.97;2.70;;;;;;;28.65;27.28;101039.59;3619310;39;20046;-71
2021/07/03 11:38:26;;;;;;;3.78;2.55;;;;;;;28.72;27.09;101043.97;3618621;39;20062;-71